Terminal Aerodrome Forecast
Issued by NWS

Home | Current Version | Previous Version | Text Only | Print | Product List | Glossary On
Versions: 1 2 3 4 5 6 7 8 9 10 11 12 13 14 15 16
000
FTUS43 KDLH 042332
TAFHYR
TAF
KHYR 042332Z 0500/0524 20007KT 6SM HZ FU SKC
     FM050300 00000KT 6SM HZ FU SKC
     FM051400 19009KT P6SM FEW250
     FM051800 19012G22KT P6SM SCT060=

USA.gov is the U.S. government's official web portal to all federal, state and local government web resources and services.